createdAt,value
2022-12-28T00:02:13.258Z,102317.75
2022-12-28T00:04:40.658Z,102318.56
2022-12-28T00:07:07.949Z,102324.75
2022-12-28T00:09:35.455Z,102312.59
2022-12-28T00:12:02.724Z,102314.47
2022-12-28T00:14:31.450Z,102302.13
2022-12-28T00:16:59.152Z,102305.00
2022-12-28T00:19:26.273Z,102292.66
2022-12-28T00:21:54.424Z,102299.53
2022-12-28T00:24:24.170Z,102286.78
2022-12-28T00:26:52.242Z,102258.91
2022-12-28T00:29:19.805Z,102266.69
2022-12-28T00:31:47.055Z,102273.03
2022-12-28T00:34:14.981Z,102241.06
2022-12-28T00:37:10.259Z,102250.41
2022-12-28T00:39:30.225Z,102241.06
2022-12-28T00:41:58.127Z,102238.31
2022-12-28T00:44:25.416Z,102237.09
2022-12-28T00:46:52.686Z,102236.09
2022-12-28T00:49:20.031Z,102238.47
2022-12-28T00:51:47.444Z,102242.84
2022-12-28T00:54:14.888Z,102246.44
2022-12-28T00:56:46.975Z,102251.31
2022-12-28T00:59:15.178Z,102234.69
2022-12-28T01:01:43.102Z,102236.38
2022-12-28T01:04:10.616Z,102236.66
2022-12-28T01:06:40.113Z,102235.06
2022-12-28T01:09:07.608Z,102229.38
2022-12-28T01:11:48.918Z,102225.00
2022-12-28T01:14:16.610Z,102225.38
2022-12-28T01:16:44.239Z,102220.75
2022-12-28T01:19:16.708Z,102210.78
2022-12-28T01:21:44.277Z,102210.09
2022-12-28T01:24:12.020Z,102205.88
2022-12-28T01:26:40.263Z,102211.16
2022-12-28T01:29:08.178Z,102207.84
2022-12-28T01:34:58.494Z,102206.03
2022-12-28T01:37:27.067Z,102208.81
2022-12-28T01:39:54.414Z,102208.97
2022-12-28T01:42:22.125Z,102205.66
2022-12-28T01:44:52.145Z,102197.59
2022-12-28T01:47:27.329Z,102196.81
2022-12-28T01:50:06.055Z,102188.41
2022-12-28T01:52:45.283Z,102215.53
2022-12-28T01:55:20.813Z,102193.97
2022-12-28T01:58:03.924Z,102207.41
2022-12-28T02:00:31.737Z,102195.34
2022-12-28T02:03:26.215Z,102209.63
2022-12-28T02:05:56.882Z,102204.56
2022-12-28T02:08:33.994Z,102205.69
2022-12-28T02:11:02.366Z,102208.22
2022-12-28T02:13:30.219Z,102212.69
2022-12-28T02:15:58.070Z,102202.16
2022-12-28T02:18:26.625Z,102203.69
2022-12-28T02:21:10.798Z,102196.50
2022-12-28T02:23:44.235Z,102173.88
2022-12-28T02:26:11.588Z,102199.84
2022-12-28T02:28:58.427Z,102202.09
2022-12-28T02:31:46.290Z,102193.78
2022-12-28T02:34:25.860Z,102150.66
2022-12-28T02:37:00.585Z,102184.06
2022-12-28T02:39:56.816Z,102157.78
2022-12-28T02:42:25.787Z,102173.47
2022-12-28T02:45:13.080Z,102174.56
2022-12-28T02:48:05.310Z,102140.19
2022-12-28T02:51:15.665Z,102168.75
2022-12-28T02:54:41.075Z,102157.38
2022-12-28T02:57:30.075Z,102146.88
2022-12-28T03:00:32.902Z,102152.50
2022-12-28T03:03:12.869Z,102141.59
2022-12-28T03:06:28.477Z,102138.63
2022-12-28T03:09:06.009Z,102138.16
2022-12-28T03:11:41.084Z,102131.09
2022-12-28T03:14:15.742Z,102126.97
2022-12-28T03:17:06.376Z,102117.13
2022-12-28T03:20:00.744Z,102128.28
2022-12-28T03:22:51.182Z,102125.78
2022-12-28T03:25:41.401Z,102109.19
2022-12-28T03:28:31.999Z,102104.28
2022-12-28T03:31:06.622Z,102112.47
2022-12-28T03:33:42.652Z,102098.59
2022-12-28T03:36:18.617Z,102102.47
2022-12-28T03:38:45.890Z,102073.25
2022-12-28T03:41:29.139Z,102088.66
2022-12-28T03:44:10.882Z,102087.94
2022-12-28T03:46:49.906Z,102080.97
2022-12-28T03:49:17.695Z,102085.44
2022-12-28T03:51:48.510Z,102091.84
2022-12-28T03:54:20.190Z,102081.28
2022-12-28T03:56:50.321Z,102083.22
2022-12-28T03:59:19.838Z,102051.09
2022-12-28T04:01:51.309Z,102076.34
2022-12-28T04:04:19.051Z,102083.63
2022-12-28T04:06:52.806Z,102066.31
2022-12-28T04:09:21.070Z,102065.59
2022-12-28T04:11:48.696Z,102032.88
2022-12-28T04:14:23.493Z,102068.53
2022-12-28T04:16:51.286Z,102061.59
2022-12-28T04:19:20.433Z,102056.41
2022-12-28T04:21:48.625Z,102048.75
2022-12-28T04:24:16.421Z,102054.84
2022-12-28T04:26:43.636Z,102054.28
2022-12-28T04:29:11.964Z,102048.28
2022-12-28T04:31:46.360Z,102034.84
2022-12-28T04:34:17.498Z,102016.47
2022-12-28T04:36:56.291Z,102033.16
2022-12-28T04:39:24.224Z,102020.88
2022-12-28T04:41:51.772Z,102011.38
2022-12-28T04:44:19.623Z,102016.47
2022-12-28T04:46:47.144Z,102017.53
2022-12-28T04:49:14.534Z,102022.06
2022-12-28T04:51:42.100Z,102019.47
2022-12-28T04:54:15.289Z,102026.59
2022-12-28T04:56:42.751Z,102019.09
2022-12-28T04:59:09.980Z,101981.06
2022-12-28T05:01:37.640Z,102007.78
2022-12-28T05:04:05.248Z,101991.38
2022-12-28T05:06:33.061Z,101996.09
2022-12-28T05:09:00.364Z,101983.59
2022-12-28T05:11:29.603Z,101978.06
2022-12-28T05:13:57.359Z,101980.03
2022-12-28T05:16:27.305Z,101943.81
2022-12-28T05:18:56.984Z,101953.66
2022-12-28T05:21:27.617Z,101969.06
2022-12-28T05:23:55.865Z,101973.38
2022-12-28T05:26:25.889Z,101965.75
2022-12-28T05:28:53.655Z,101969.75
2022-12-28T05:31:23.900Z,101938.00
2022-12-28T05:33:51.470Z,101952.50
2022-12-28T05:36:21.305Z,101957.06
2022-12-28T05:38:48.980Z,101929.31
2022-12-28T05:41:22.573Z,101931.09
2022-12-28T05:43:51.751Z,101964.38
2022-12-28T05:46:25.506Z,101959.16
2022-12-28T05:48:55.564Z,101948.38
2022-12-28T05:51:26.787Z,101951.94
2022-12-28T05:53:54.404Z,101957.47
2022-12-28T05:56:24.309Z,101953.41
2022-12-28T05:58:57.621Z,101934.69
2022-12-28T06:01:28.437Z,101939.09
2022-12-28T06:03:58.930Z,101946.81
2022-12-28T06:06:27.653Z,101926.66
2022-12-28T06:08:55.558Z,101939.25
2022-12-28T06:11:25.094Z,101910.94
2022-12-28T06:13:53.602Z,101917.84
2022-12-28T06:16:27.290Z,101892.38
2022-12-28T06:18:54.848Z,101884.75
2022-12-28T06:21:26.604Z,101863.59
2022-12-28T06:23:58.048Z,101901.56
2022-12-28T06:26:26.981Z,101902.88
2022-12-28T06:28:54.443Z,101901.81
2022-12-28T06:31:24.759Z,101887.09
2022-12-28T06:33:55.234Z,101878.22
2022-12-28T06:36:25.340Z,101893.41
2022-12-28T06:38:54.494Z,101886.41
2022-12-28T06:41:22.691Z,101889.13
2022-12-28T06:43:51.408Z,101890.19
2022-12-28T06:46:20.987Z,101881.41
2022-12-28T06:48:49.224Z,101884.44
2022-12-28T06:51:22.347Z,101846.31
2022-12-28T06:53:51.177Z,101870.56
2022-12-28T06:56:31.276Z,101874.63
2022-12-28T06:59:03.430Z,101879.84
2022-12-28T07:01:44.988Z,101865.09
2022-12-28T07:04:12.741Z,101878.47
2022-12-28T07:06:42.791Z,101845.41
2022-12-28T07:09:13.884Z,101838.31
2022-12-28T07:11:42.912Z,101869.31
2022-12-28T07:14:10.211Z,101859.75
2022-12-28T07:19:04.114Z,101848.63
2022-12-28T07:21:37.588Z,101856.53
2022-12-28T07:24:06.365Z,101849.69
2022-12-28T07:26:36.462Z,101849.53
2022-12-28T07:29:06.354Z,101854.53
2022-12-28T07:31:41.951Z,101851.06
2022-12-28T07:34:12.186Z,101847.75
2022-12-28T07:36:40.796Z,101838.06
2022-12-28T07:39:08.394Z,101835.47
2022-12-28T07:41:38.983Z,101838.06
2022-12-28T07:44:07.064Z,101839.88
2022-12-28T07:46:36.692Z,101822.13
2022-12-28T07:49:04.106Z,101839.03
2022-12-28T07:51:34.083Z,101839.03
2022-12-28T07:54:01.743Z,101823.41
2022-12-28T07:59:00.555Z,101827.66
2022-12-28T08:01:32.709Z,101825.06
2022-12-28T08:04:04.079Z,101829.44
2022-12-28T08:06:35.851Z,101825.19
2022-12-28T08:09:04.233Z,101801.50
2022-12-28T08:11:34.208Z,101812.84
2022-12-28T08:14:02.690Z,101819.03
2022-12-28T08:16:32.792Z,101819.16
2022-12-28T08:19:01.229Z,101808.53
2022-12-28T08:21:31.314Z,101788.06
2022-12-28T08:23:59.449Z,101804.09
2022-12-28T08:26:48.009Z,101806.28
2022-12-28T08:29:19.509Z,101807.16
2022-12-28T08:31:47.723Z,101796.69
2022-12-28T08:34:19.339Z,101773.38
2022-12-28T08:36:47.029Z,101794.69
2022-12-28T08:39:14.875Z,101809.78
2022-12-28T08:41:42.443Z,101807.22
2022-12-28T08:44:10.214Z,101811.59
2022-12-28T08:46:38.230Z,101817.91
2022-12-28T08:49:06.285Z,101814.41
2022-12-28T08:51:42.236Z,101819.03
2022-12-28T08:54:11.997Z,101816.50
2022-12-28T08:56:41.860Z,101799.91
2022-12-28T08:59:09.213Z,101813.00
2022-12-28T09:01:44.233Z,101773.16
2022-12-28T09:04:21.521Z,101799.03
2022-12-28T09:06:50.044Z,101803.28
2022-12-28T09:09:20.059Z,101810.38
2022-12-28T09:11:48.266Z,101802.69
2022-12-28T09:14:22.499Z,101801.84
2022-12-28T09:16:52.235Z,101794.22
2022-12-28T09:19:19.668Z,101788.22
2022-12-28T09:21:49.475Z,101778.59
2022-12-28T09:24:17.001Z,101775.91
2022-12-28T09:26:44.492Z,101765.81
2022-12-28T09:29:14.192Z,101742.81
2022-12-28T09:31:42.353Z,101787.66
2022-12-28T09:37:01.574Z,101761.06
2022-12-28T09:39:29.569Z,101794.16
2022-12-28T09:42:11.606Z,101791.84
2022-12-28T09:45:05.661Z,101797.31
2022-12-28T09:47:37.261Z,101782.25
2022-12-28T09:50:14.837Z,101799.81
2022-12-28T09:53:24.426Z,101807.56
2022-12-28T09:56:18.049Z,101806.53
2022-12-28T09:58:48.087Z,101809.41
2022-12-28T10:01:18.494Z,101806.59
2022-12-28T10:03:47.157Z,101806.66
2022-12-28T10:06:23.911Z,101809.41
2022-12-28T10:08:58.182Z,101789.19
2022-12-28T10:11:31.963Z,101810.38
2022-12-28T10:14:01.544Z,101805.31
2022-12-28T10:16:33.212Z,101802.63
2022-12-28T10:19:01.756Z,101798.03
2022-12-28T10:21:33.858Z,101796.13
2022-12-28T10:24:31.495Z,101795.16
2022-12-28T10:26:55.901Z,101792.75
2022-12-28T10:29:25.027Z,101784.97
2022-12-28T10:32:04.137Z,101784.66
2022-12-28T10:34:34.957Z,101790.50
2022-12-28T10:37:14.493Z,101759.22
2022-12-28T10:39:50.552Z,101779.16
2022-12-28T10:42:33.509Z,101773.75
2022-12-28T10:45:07.712Z,101759.78
2022-12-28T10:47:44.082Z,101744.81
2022-12-28T10:50:40.363Z,101758.03
2022-12-28T10:53:40.028Z,101763.72
2022-12-28T10:56:13.612Z,101723.41
2022-12-28T10:58:43.449Z,101740.56
2022-12-28T11:01:14.035Z,101741.03
2022-12-28T11:03:57.791Z,101739.06
2022-12-28T11:06:27.807Z,101735.09
2022-12-28T11:09:01.634Z,101724.59
2022-12-28T11:11:29.250Z,101743.47
2022-12-28T11:14:05.437Z,101742.81
2022-12-28T11:16:38.303Z,101723.00
2022-12-28T11:19:06.007Z,101720.44
2022-12-28T11:21:35.599Z,101712.91
2022-12-28T11:24:04.212Z,101709.56
2022-12-28T11:26:34.223Z,101716.84
2022-12-28T11:29:03.128Z,101707.72
2022-12-28T11:31:42.890Z,101702.91
2022-12-28T11:34:18.125Z,101695.28
2022-12-28T11:36:46.752Z,101693.84
2022-12-28T11:39:26.157Z,101695.84
2022-12-28T11:42:37.816Z,101691.59
2022-12-28T11:44:42.539Z,101689.34
2022-12-28T11:47:16.236Z,101679.03
2022-12-28T11:49:45.797Z,101674.84
2022-12-28T11:52:24.639Z,101669.84
2022-12-28T11:54:56.626Z,101649.03
2022-12-28T11:57:38.880Z,101666.91
2022-12-28T12:00:23.242Z,101653.03
2022-12-28T12:02:53.424Z,101636.38
2022-12-28T12:05:38.033Z,101658.00
2022-12-28T12:08:17.353Z,101644.00
2022-12-28T12:10:46.529Z,101657.53
2022-12-28T12:13:25.986Z,101664.97
2022-12-28T12:16:00.292Z,101657.84
2022-12-28T12:18:30.287Z,101651.91
2022-12-28T12:21:15.072Z,101650.19
2022-12-28T12:23:54.377Z,101635.53
2022-12-28T12:26:31.592Z,101619.59
2022-12-28T12:29:20.316Z,101610.94
2022-12-28T12:31:57.123Z,101614.88
2022-12-28T12:34:26.869Z,101619.34
2022-12-28T12:37:38.805Z,101607.28
2022-12-28T12:40:40.304Z,101602.97
2022-12-28T12:43:31.373Z,101593.56
2022-12-28T12:46:13.493Z,101590.09
2022-12-28T12:48:53.513Z,101578.00
2022-12-28T12:51:23.596Z,101562.16
2022-12-28T12:54:09.629Z,101587.84
2022-12-28T12:57:00.964Z,101579.97
2022-12-28T12:59:53.416Z,101570.41
2022-12-28T13:03:03.623Z,101571.53
2022-12-28T13:05:31.866Z,101562.66
2022-12-28T13:08:00.859Z,101532.72
2022-12-28T13:10:40.949Z,101545.16
2022-12-28T13:13:36.181Z,101543.56
2022-12-28T13:16:09.760Z,101537.44
2022-12-28T13:18:45.678Z,101542.94
2022-12-28T13:21:20.984Z,101530.50
2022-12-28T13:23:49.974Z,101517.50
2022-12-28T13:26:17.970Z,101529.00
2022-12-28T13:28:56.448Z,101523.66
2022-12-28T13:31:36.510Z,101515.78
2022-12-28T13:34:27.194Z,101509.63
2022-12-28T13:37:03.107Z,101496.47
2022-12-28T13:39:38.306Z,101500.00
2022-12-28T13:42:17.458Z,101498.09
2022-12-28T13:44:50.985Z,101503.47
2022-12-28T13:47:31.507Z,101500.00
2022-12-28T13:50:07.614Z,101464.75
2022-12-28T13:52:59.676Z,101492.13
2022-12-28T13:55:37.161Z,101490.41
2022-12-28T13:58:11.785Z,101480.78
2022-12-28T14:00:43.111Z,101477.34
2022-12-28T14:03:12.190Z,101478.25
2022-12-28T14:05:43.769Z,101471.28
2022-12-28T14:08:12.048Z,101476.44
2022-12-28T14:10:40.277Z,101459.66
2022-12-28T14:13:08.949Z,101461.56
2022-12-28T14:15:41.392Z,101451.97
2022-12-28T14:18:14.144Z,101453.66
2022-12-28T14:20:48.638Z,101430.66
2022-12-28T14:23:26.756Z,101435.06
2022-12-28T14:25:57.268Z,101437.72
2022-12-28T14:28:42.670Z,101427.94
2022-12-28T14:31:13.141Z,101428.84
2022-12-28T14:33:53.104Z,101428.81
2022-12-28T14:36:23.342Z,101433.19
2022-12-28T14:38:59.729Z,101426.97
2022-12-28T14:41:40.208Z,101441.88
2022-12-28T14:44:17.626Z,101424.19
2022-12-28T14:46:45.346Z,101445.28
2022-12-28T14:49:31.956Z,101439.03
2022-12-28T14:52:09.302Z,101424.78
2022-12-28T14:54:46.532Z,101444.25
2022-12-28T14:57:32.490Z,101451.22
2022-12-28T15:00:07.441Z,101442.47
2022-12-28T15:02:34.843Z,101449.44
2022-12-28T15:05:03.416Z,101423.63
2022-12-28T15:07:33.865Z,101449.97
2022-12-28T15:10:01.681Z,101450.91
2022-12-28T15:12:28.973Z,101449.09
2022-12-28T15:14:56.528Z,101443.69
2022-12-28T15:17:26.851Z,101449.66
2022-12-28T15:19:58.761Z,101456.63
2022-12-28T15:22:26.243Z,101456.53
2022-12-28T15:24:53.383Z,101458.16
2022-12-28T15:27:20.736Z,101431.66
2022-12-28T15:30:04.843Z,101458.91
2022-12-28T15:32:33.481Z,101459.72
2022-12-28T15:35:00.646Z,101465.09
2022-12-28T15:37:27.986Z,101464.94
2022-12-28T15:39:55.239Z,101466.44
2022-12-28T15:42:22.517Z,101465.53
2022-12-28T15:44:51.414Z,101463.66
2022-12-28T15:47:18.914Z,101480.28
2022-12-28T15:49:46.269Z,101483.66
2022-12-28T15:52:13.750Z,101472.19
2022-12-28T15:54:46.774Z,101478.22
2022-12-28T15:57:16.270Z,101473.69
2022-12-28T15:59:43.761Z,101470.19
2022-12-28T16:02:12.450Z,101458.56
2022-12-28T16:04:40.006Z,101468.22
2022-12-28T16:07:07.539Z,101453.16
2022-12-28T16:09:35.227Z,101471.53
2022-12-28T16:12:02.757Z,101473.16
2022-12-28T16:14:30.420Z,101468.75
2022-12-28T16:16:58.271Z,101469.47
2022-12-28T16:19:25.775Z,101476.38
2022-12-28T16:21:53.318Z,101476.34
2022-12-28T16:24:21.128Z,101465.69
2022-12-28T16:26:48.473Z,101471.69
2022-12-28T16:29:15.758Z,101478.69
2022-12-28T16:31:43.242Z,101468.03
2022-12-28T16:34:16.852Z,101474.97
2022-12-28T16:36:46.711Z,101474.09
2022-12-28T16:39:17.082Z,101471.28
2022-12-28T16:41:44.717Z,101485.44
2022-12-28T16:44:18.515Z,101482.72
2022-12-28T16:46:46.981Z,101486.06
2022-12-28T16:49:14.529Z,101490.38
2022-12-28T16:51:44.729Z,101444.44
2022-12-28T16:54:20.895Z,101486.81
2022-12-28T16:56:49.843Z,101473.50
2022-12-28T16:59:25.705Z,101473.34
2022-12-28T17:01:54.450Z,101473.28
2022-12-28T17:04:22.986Z,101475.88
2022-12-28T17:06:52.133Z,101467.81
2022-12-28T17:09:20.567Z,101480.03
2022-12-28T17:11:49.319Z,101477.38
2022-12-28T17:14:29.301Z,101471.16
2022-12-28T17:17:03.641Z,101477.28
2022-12-28T17:19:30.848Z,101479.03
2022-12-28T17:21:58.362Z,101474.59
2022-12-28T17:24:26.602Z,101482.44
2022-12-28T17:26:54.003Z,101472.69
2022-12-28T17:29:21.325Z,101474.44
2022-12-28T17:31:48.959Z,101469.13
2022-12-28T17:34:16.554Z,101466.50
2022-12-28T17:36:44.043Z,101475.34
2022-12-28T17:39:11.298Z,101463.06
2022-12-28T17:41:38.717Z,101470.06
2022-12-28T17:44:06.178Z,101473.56
2022-12-28T17:46:38.071Z,101464.78
2022-12-28T17:49:05.729Z,101467.28
2022-12-28T17:51:34.739Z,101462.00
2022-12-28T17:54:02.367Z,101462.00
2022-12-28T17:56:29.645Z,101459.38
2022-12-28T17:58:58.926Z,101453.25
2022-12-28T18:01:28.367Z,101438.09
2022-12-28T18:03:57.494Z,101460.25
2022-12-28T18:06:26.050Z,101455.78
2022-12-28T18:08:53.387Z,101468.06
2022-12-28T18:11:21.005Z,101465.50
2022-12-28T18:13:48.356Z,101466.34
2022-12-28T18:16:17.949Z,101458.31
2022-12-28T18:18:46.027Z,101456.59
2022-12-28T18:21:21.486Z,101466.44
2022-12-28T18:23:52.400Z,101466.97
2022-12-28T18:26:26.468Z,101455.66
2022-12-28T18:28:55.548Z,101462.66
2022-12-28T18:31:23.908Z,101452.91
2022-12-28T18:33:51.415Z,101450.22
2022-12-28T18:36:18.970Z,101475.66
2022-12-28T18:38:47.257Z,101467.72
2022-12-28T18:41:16.728Z,101465.91
2022-12-28T18:43:44.419Z,101462.38
2022-12-28T18:46:11.857Z,101470.97
2022-12-28T18:48:41.490Z,101429.53
2022-12-28T18:51:15.557Z,101474.50
2022-12-28T18:53:43.465Z,101466.69
2022-12-28T18:56:14.147Z,101464.00
2022-12-28T18:58:42.691Z,101455.84
2022-12-28T19:01:40.207Z,101462.94
2022-12-28T19:04:08.021Z,101451.31
2022-12-28T19:06:36.757Z,101458.44
2022-12-28T19:09:06.048Z,101453.03
2022-12-28T19:11:34.181Z,101448.75
2022-12-28T19:14:06.844Z,101455.66
2022-12-28T19:16:34.916Z,101460.88
2022-12-28T19:19:02.917Z,101446.88
2022-12-28T19:21:33.108Z,101445.09
2022-12-28T19:24:07.211Z,101417.59
2022-12-28T19:26:35.811Z,101436.13
2022-12-28T19:29:03.765Z,101442.19
2022-12-28T19:31:32.085Z,101405.97
2022-12-28T19:33:59.698Z,101422.88
2022-12-28T19:36:27.527Z,101428.25
2022-12-28T19:38:56.632Z,101448.22
2022-12-28T19:41:24.469Z,101441.19
2022-12-28T19:43:52.453Z,101439.50
2022-12-28T19:46:22.768Z,101424.47
2022-12-28T19:48:53.788Z,101431.56
2022-12-28T19:51:24.542Z,101436.84
2022-12-28T19:53:56.239Z,101426.38
2022-12-28T19:56:24.013Z,101419.31
2022-12-28T19:58:51.450Z,101435.09
2022-12-28T20:01:28.430Z,101423.56
2022-12-28T20:03:56.284Z,101444.78
2022-12-28T20:06:29.388Z,101440.44
2022-12-28T20:08:59.805Z,101447.28
2022-12-28T20:11:28.460Z,101427.97
2022-12-28T20:14:02.175Z,101430.66
2022-12-28T20:16:31.784Z,101425.44
2022-12-28T20:19:02.015Z,101436.78
2022-12-28T20:21:29.350Z,101431.50
2022-12-28T20:23:56.926Z,101435.03
2022-12-28T20:26:28.951Z,101428.00
2022-12-28T20:29:01.116Z,101430.66
2022-12-28T20:31:28.788Z,101427.97
2022-12-28T20:33:56.291Z,101439.34
2022-12-28T20:36:27.072Z,101430.56
2022-12-28T20:38:55.963Z,101432.34
2022-12-28T20:41:50.423Z,101433.19
2022-12-28T20:44:26.150Z,101425.44
2022-12-28T20:46:54.342Z,101420.06
2022-12-28T20:49:23.132Z,101422.59
2022-12-28T20:51:51.285Z,101419.13
2022-12-28T20:54:22.715Z,101389.25
2022-12-28T20:56:55.202Z,101408.53
2022-12-28T20:59:25.342Z,101387.53
2022-12-28T21:01:53.356Z,101360.34
2022-12-28T21:04:22.475Z,101371.69
2022-12-28T21:06:49.993Z,101358.44
2022-12-28T21:09:17.227Z,101370.63
2022-12-28T21:11:44.905Z,101364.41
2022-12-28T21:14:12.398Z,101366.28
2022-12-28T21:16:40.131Z,101355.63
2022-12-28T21:19:07.319Z,101346.91
2022-12-28T21:21:35.624Z,101350.31
2022-12-28T21:24:04.454Z,101335.28
2022-12-28T21:26:31.747Z,101334.44
2022-12-28T21:28:59.778Z,101332.50
2022-12-28T21:31:28.371Z,101327.31
2022-12-28T21:33:57.353Z,101332.47
2022-12-28T21:36:24.901Z,101337.72
2022-12-28T21:38:52.267Z,101347.09
2022-12-28T21:41:41.099Z,101349.00
2022-12-28T21:44:13.385Z,101359.56
2022-12-28T21:46:41.521Z,101331.09
2022-12-28T21:49:09.674Z,101370.00
2022-12-28T21:51:39.040Z,101371.91
2022-12-28T21:54:10.449Z,101366.66
2022-12-28T21:56:37.714Z,101356.00
2022-12-28T21:59:06.141Z,101360.16
2022-12-28T22:01:52.403Z,101349.56
2022-12-28T22:04:40.758Z,101351.22
2022-12-28T22:07:10.640Z,101338.75
2022-12-28T22:09:57.543Z,101328.13
2022-12-28T22:12:35.659Z,101329.84
2022-12-28T22:15:39.052Z,101312.09
2022-12-28T22:18:44.928Z,101323.59
2022-12-28T22:21:09.340Z,101326.31
2022-12-28T22:23:37.152Z,101323.69
2022-12-28T22:26:04.321Z,101312.31
2022-12-28T22:28:32.246Z,101319.28
2022-12-28T22:31:03.716Z,101323.53
2022-12-28T22:33:31.323Z,101322.69
2022-12-28T22:35:58.851Z,101315.53
2022-12-28T22:38:27.851Z,101324.56
2022-12-28T22:40:58.987Z,101328.97
2022-12-28T22:43:26.521Z,101324.47
2022-12-28T22:46:11.557Z,101326.06
2022-12-28T22:48:38.989Z,101323.44
2022-12-28T22:51:12.554Z,101323.31
2022-12-28T22:53:40.669Z,101301.19
2022-12-28T22:56:11.425Z,101324.94
2022-12-28T22:58:38.721Z,101335.91
2022-12-28T23:01:11.630Z,101336.84
2022-12-28T23:03:44.667Z,101345.63
2022-12-28T23:06:14.759Z,101342.06
2022-12-28T23:08:43.200Z,101323.69
2022-12-28T23:11:35.417Z,101316.88
2022-12-28T23:14:42.901Z,101322.19
2022-12-28T23:17:13.919Z,101339.59
2022-12-28T23:20:04.852Z,101330.03
2022-12-28T23:22:53.260Z,101336.25
2022-12-28T23:25:41.680Z,101322.13
2022-12-28T23:28:12.967Z,101317.59
2022-12-28T23:30:44.032Z,101323.16
2022-12-28T23:33:12.011Z,101324.97
2022-12-28T23:35:39.763Z,101322.25
2022-12-28T23:38:07.229Z,101319.53
2022-12-28T23:40:34.596Z,101312.59
2022-12-28T23:43:01.782Z,101309.97
2022-12-28T23:45:29.257Z,101302.22
2022-12-28T23:47:56.524Z,101305.75
2022-12-28T23:50:23.876Z,101298.81
2022-12-28T23:52:51.208Z,101295.53
2022-12-28T23:55:18.805Z,101288.53
2022-12-28T23:57:46.157Z,101295.44
